createdAt,value
2023-04-08T03:57:01.011Z,0.373
2023-04-08T04:03:07.327Z,0.747
2023-04-08T04:05:40.454Z,1.867
2023-04-08T04:11:01.811Z,4.482
2023-04-08T04:16:21.448Z,10.084
2023-04-08T04:21:21.488Z,26.145
2023-04-08T04:24:55.790Z,30.627
2023-04-08T04:29:00.696Z,37.35
2023-04-08T04:33:41.208Z,60.88
2023-04-08T04:38:55.888Z,104.58
2023-04-08T04:41:59.405Z,124.749
2023-04-08T04:49:16.757Z,248.004
2023-04-08T04:55:18.131Z,279.378
2023-04-08T04:58:47.327Z,258.462
2023-04-08T05:02:42.124Z,285.354
2023-04-08T05:07:52.049Z,351.09
2023-04-08T05:12:27.745Z,466.128
2023-04-08T05:16:47.766Z,624.492
2023-04-08T05:20:22.090Z,866.52
2023-04-08T05:23:00.524Z,980.064
2023-04-08T05:25:33.244Z,896.4
2023-04-08T05:28:26.739Z,699.192
2023-04-08T05:33:31.843Z,770.904
2023-04-08T05:36:40.656Z,890.424
2023-04-08T05:39:23.919Z,1033.848
2023-04-08T05:43:49.190Z,1338.624
2023-04-08T05:47:23.441Z,1499.976
2023-04-08T05:50:27.002Z,1673.28
2023-04-08T05:54:31.926Z,1876.464
2023-04-08T05:57:50.844Z,1314.72
2023-04-08T06:01:20.072Z,1613.52
2023-04-08T06:05:45.261Z,1434.24
2023-04-08T06:08:18.358Z,1577.664
2023-04-08T06:11:21.968Z,1589.616
2023-04-08T06:14:35.859Z,1840.608
2023-04-08T06:17:24.199Z,1499.976
2023-04-08T06:20:48.289Z,1685.232
2023-04-08T06:24:37.790Z,1476.072
2023-04-08T06:27:51.688Z,1529.856
2023-04-08T06:30:50.260Z,1936.224
2023-04-08T06:33:48.814Z,2330.64
2023-04-08T06:36:47.419Z,2462.112
2023-04-08T06:40:52.284Z,2402.352
2023-04-08T06:47:30.345Z,1972.08
2023-04-08T06:51:09.511Z,1840.608
2023-04-08T06:53:57.854Z,2007.936
2023-04-08T06:56:51.322Z,2019.888
2023-04-08T07:01:36.969Z,2509.92
2023-04-08T07:04:20.195Z,2689.2
2023-04-08T07:09:22.469Z,3848.544
2023-04-08T07:14:31.109Z,2952.144
2023-04-08T07:18:30.903Z,3633.408
2023-04-08T07:21:03.927Z,3968.064
2023-04-08T07:23:57.375Z,4685.184
2023-04-08T07:28:53.475Z,4493.952
2023-04-08T07:31:56.831Z,4565.664
2023-04-08T07:36:16.904Z,4828.608
2023-04-08T07:38:55.139Z,6884.352
2023-04-08T07:41:28.133Z,6788.736
2023-04-08T07:44:01.360Z,6454.08
2023-04-08T07:47:25.006Z,4541.76
2023-04-08T07:50:23.698Z,6047.712
2023-04-08T07:56:23.894Z,5760.864
2023-04-08T07:59:07.255Z,5497.92
2023-04-08T08:02:00.789Z,5258.88
2023-04-08T08:05:09.519Z,4589.568
2023-04-08T08:08:18.246Z,5402.304
2023-04-08T08:10:51.350Z,6095.52
2023-04-08T08:13:29.523Z,5474.016
2023-04-08T08:16:02.603Z,5378.4
2023-04-08T08:19:01.282Z,4924.224
2023-04-08T08:22:04.819Z,5450.112
2023-04-08T08:24:53.223Z,5856.48
2023-04-08T08:28:22.382Z,6310.656
2023-04-08T08:31:05.709Z,5928.192
2023-04-08T08:34:19.628Z,6597.504
2023-04-08T08:39:25.599Z,6836.544
2023-04-08T08:42:03.865Z,6693.12
2023-04-08T08:45:20.468Z,6836.544
2023-04-08T08:48:08.773Z,7266.816
2023-04-08T08:52:13.623Z,7649.28
2023-04-08T08:55:41.790Z,6358.464
2023-04-08T08:58:46.419Z,5306.688
2023-04-08T09:01:55.269Z,5904.288
2023-04-08T09:04:48.839Z,6119.424
2023-04-08T09:09:00.912Z,8796.672
2023-04-08T09:11:30.918Z,9944.064
2023-04-08T09:14:39.384Z,12430.08
2023-04-08T09:17:27.861Z,11760.768
2023-04-08T09:20:06.059Z,11617.344
2023-04-08T09:22:49.333Z,12430.08
2023-04-08T09:26:03.243Z,12334.464
2023-04-08T09:29:04.036Z,8031.744
2023-04-08T09:32:33.784Z,8031.744
2023-04-08T09:35:29.434Z,12334.464
2023-04-08T09:38:17.721Z,13099.392
2023-04-08T09:41:11.064Z,18740.736
2023-04-08T09:44:29.338Z,18453.888
2023-04-08T09:47:19.164Z,22087.296
2023-04-08T09:50:01.673Z,17880.192
2023-04-08T09:52:45.030Z,18931.968
2023-04-08T09:55:30.831Z,28684.8
2023-04-08T09:58:11.674Z,30788.352
2023-04-08T10:00:46.556Z,22660.992
2023-04-08T10:03:23.074Z,28302.336
2023-04-08T10:06:50.297Z,27346.176
2023-04-08T10:09:23.115Z,29067.264
2023-04-08T10:12:24.900Z,26581.248
2023-04-08T10:14:57.935Z,24668.928
2023-04-08T10:17:31.054Z,22756.608
2023-04-08T10:21:00.628Z,21609.216
2023-04-08T10:23:36.356Z,17880.192
2023-04-08T10:26:09.561Z,12334.464
2023-04-08T10:28:42.634Z,13673.088
2023-04-08T10:31:25.892Z,14820.48
2023-04-08T10:34:14.245Z,15872.256
2023-04-08T10:37:57.930Z,12430.08
2023-04-08T10:40:46.278Z,10326.528
2023-04-08T10:44:25.661Z,9800.64
2023-04-08T10:48:56.500Z,9226.944
2023-04-08T10:53:11.503Z,8987.904
2023-04-08T10:56:10.150Z,8605.44
2023-04-08T10:58:43.211Z,8270.784
2023-04-08T11:01:52.043Z,7936.128
2023-04-08T11:04:40.376Z,10183.104
2023-04-08T11:07:18.603Z,13481.856
2023-04-08T11:11:23.428Z,11043.648
2023-04-08T11:17:00.181Z,9131.328
2023-04-08T11:19:53.557Z,5641.344
2023-04-08T11:22:57.241Z,6119.424
2023-04-08T11:25:50.655Z,5999.904
2023-04-08T11:28:23.744Z,7219.008
2023-04-08T11:31:32.532Z,7936.128
2023-04-08T11:34:28.789Z,11521.728
2023-04-08T11:37:50.185Z,7744.896
2023-04-08T11:40:48.761Z,8270.784
2023-04-08T11:43:31.953Z,10087.488
2023-04-08T11:46:16.358Z,20079.36
2023-04-08T11:49:45.189Z,17784.576
2023-04-08T11:52:30.207Z,11234.88
2023-04-08T11:55:23.719Z,7123.392
2023-04-08T11:58:06.962Z,6262.848
2023-04-08T12:00:50.304Z,7744.896
2023-04-08T12:03:34.982Z,11808.576
2023-04-08T12:06:07.922Z,16350.336
2023-04-08T12:08:41.072Z,17975.808
2023-04-08T12:11:20.301Z,18549.504
2023-04-08T12:13:52.469Z,17688.96
2023-04-08T12:16:30.427Z,18358.272
2023-04-08T12:19:13.658Z,18931.968
2023-04-08T12:21:50.651Z,15681.024
2023-04-08T12:24:40.271Z,12095.424
2023-04-08T12:27:25.494Z,8175.168
2023-04-08T12:30:34.233Z,8462.016
2023-04-08T12:33:07.354Z,11426.112
2023-04-08T12:35:43.773Z,15394.176
2023-04-08T12:40:50.355Z,16828.416
2023-04-08T12:43:48.547Z,15489.792
2023-04-08T12:46:21.641Z,13099.392
2023-04-08T12:49:03.037Z,9800.64
2023-04-08T12:52:06.591Z,6932.16
2023-04-08T12:58:59.773Z,5880.384
2023-04-08T13:01:43.154Z,5641.344
2023-04-08T13:09:01.671Z,7649.28
2023-04-08T14:18:13.313Z,5115.456
2023-04-08T14:21:06.679Z,4135.392
2023-04-08T14:23:39.824Z,3466.08
2023-04-08T14:26:23.066Z,3489.984
2023-04-08T14:30:07.483Z,3681.216
2023-04-08T14:34:27.650Z,4422.24
2023-04-08T14:37:00.760Z,3609.504
2023-04-08T14:41:41.367Z,3059.712
2023-04-08T14:44:14.417Z,2641.392
2023-04-08T14:48:44.729Z,3047.76
2023-04-08T14:52:08.785Z,3155.328
2023-04-08T14:54:41.876Z,3800.736
2023-04-08T14:57:25.178Z,4637.376
2023-04-08T14:59:58.170Z,4828.608
2023-04-08T15:02:31.292Z,4517.856
2023-04-08T15:06:00.394Z,4231.008
2023-04-08T15:09:19.358Z,3513.888
2023-04-08T15:12:33.222Z,3023.856
2023-04-08T15:15:47.092Z,2390.4
2023-04-08T15:18:20.132Z,2067.696
2023-04-08T15:21:08.442Z,1756.944
2023-04-08T15:25:28.561Z,1111.536
2023-04-08T15:28:52.915Z,1135.44
2023-04-08T15:31:46.041Z,1171.296
2023-04-08T15:34:39.500Z,1278.864
2023-04-08T15:37:43.244Z,1488.024
2023-04-08T15:43:14.741Z,2330.64
2023-04-08T15:45:47.764Z,2725.056
2023-04-08T15:48:25.957Z,2964.096
2023-04-08T15:51:14.304Z,2880.432
2023-04-08T15:55:03.859Z,2737.008
2023-04-08T15:57:41.997Z,2964.096
2023-04-08T16:04:23.713Z,2235.024
2023-04-08T16:09:40.073Z,1709.136
2023-04-08T16:12:38.503Z,1529.856
2023-04-08T16:15:21.810Z,1440.216
2023-04-08T16:17:59.983Z,1308.744
2023-04-08T16:20:32.983Z,1272.888
2023-04-08T16:23:11.182Z,1494
2023-04-08T16:26:55.606Z,1344.6
2023-04-08T16:29:43.932Z,1350.576
2023-04-08T16:32:47.626Z,1398.384
2023-04-08T16:35:41.132Z,1446.192
2023-04-08T16:38:14.157Z,1565.712
2023-04-08T16:41:38.323Z,1685.232
2023-04-08T16:44:57.247Z,1733.04
2023-04-08T16:47:35.432Z,1804.752
2023-04-08T16:55:38.905Z,1613.52
2023-04-08T16:58:47.688Z,1452.168
2023-04-08T17:02:22.086Z,1356.552
2023-04-08T17:06:31.952Z,1051.776
2023-04-08T17:12:22.383Z,830.664
2023-04-08T17:15:21.049Z,720.108
2023-04-08T17:18:29.786Z,657.36
2023-04-08T17:21:53.891Z,627.48
2023-04-08T17:25:07.710Z,633.456
2023-04-08T17:28:06.277Z,594.612
2023-04-08T17:33:11.057Z,507.96
2023-04-08T17:36:35.249Z,460.152
2023-04-08T17:40:55.351Z,374.994
2023-04-08T17:47:51.871Z,230.076
2023-04-08T17:52:51.903Z,150.894
2023-04-08T17:57:52.027Z,81.423
2023-04-08T18:02:52.219Z,32.494
2023-04-08T18:07:52.226Z,15.687
2023-04-08T18:12:57.737Z,7.47
2023-04-08T18:17:52.469Z,3.361
2023-04-08T18:22:52.575Z,1.12
2023-04-08T18:27:52.665Z,0.373
2023-04-08T18:32:52.854Z,0
